sensor_id;sensor_type;location;lat;lon;timestamp;P1;durP1;ratioP1;P2;durP2;ratioP2
33672;SDS011;20011;51.510;9.942;2023-04-24T00:02:24;1.63;;;0.90;;
33672;SDS011;20011;51.510;9.942;2023-04-24T00:04:52;1.00;;;0.90;;
33672;SDS011;20011;51.510;9.942;2023-04-24T00:07:19;1.17;;;1.02;;
33672;SDS011;20011;51.510;9.942;2023-04-24T00:09:46;2.17;;;1.23;;
33672;SDS011;20011;51.510;9.942;2023-04-24T00:12:13;1.25;;;0.70;;
33672;SDS011;20011;51.510;9.942;2023-04-24T00:14:40;2.00;;;0.80;;
33672;SDS011;20011;51.510;9.942;2023-04-24T00:17:07;3.50;;;1.08;;
33672;SDS011;20011;51.510;9.942;2023-04-24T00:19:34;0.82;;;0.80;;
33672;SDS011;20011;51.510;9.942;2023-04-24T00:22:01;1.13;;;0.65;;
33672;SDS011;20011;51.510;9.942;2023-04-24T00:24:28;1.75;;;0.88;;
33672;SDS011;20011;51.510;9.942;2023-04-24T00:26:56;1.08;;;0.93;;
33672;SDS011;20011;51.510;9.942;2023-04-24T00:29:23;1.33;;;0.93;;
33672;SDS011;20011;51.510;9.942;2023-04-24T00:31:50;0.65;;;0.60;;
33672;SDS011;20011;51.510;9.942;2023-04-24T00:34:17;1.95;;;0.60;;
33672;SDS011;20011;51.510;9.942;2023-04-24T00:36:45;5.57;;;0.77;;
33672;SDS011;20011;51.510;9.942;2023-04-24T00:39:12;1.23;;;0.80;;
33672;SDS011;20011;51.510;9.942;2023-04-24T00:41:39;2.83;;;0.90;;
33672;SDS011;20011;51.510;9.942;2023-04-24T00:44:06;2.25;;;0.80;;
33672;SDS011;20011;51.510;9.942;2023-04-24T00:46:34;0.85;;;0.70;;
33672;SDS011;20011;51.510;9.942;2023-04-24T00:49:02;0.52;;;0.52;;
33672;SDS011;20011;51.510;9.942;2023-04-24T00:51:30;1.23;;;0.90;;
33672;SDS011;20011;51.510;9.942;2023-04-24T00:53:59;1.17;;;0.70;;
33672;SDS011;20011;51.510;9.942;2023-04-24T00:56:27;0.52;;;0.52;;
33672;SDS011;20011;51.510;9.942;2023-04-24T00:58:55;0.43;;;0.43;;
33672;SDS011;20011;51.510;9.942;2023-04-24T01:01:22;0.60;;;0.50;;
33672;SDS011;20011;51.510;9.942;2023-04-24T01:03:50;6.03;;;0.80;;
33672;SDS011;20011;51.510;9.942;2023-04-24T01:06:18;0.80;;;0.60;;
33672;SDS011;20011;51.510;9.942;2023-04-24T01:08:46;1.17;;;0.75;;
33672;SDS011;20011;51.510;9.942;2023-04-24T01:11:14;1.48;;;0.75;;
33672;SDS011;20011;51.510;9.942;2023-04-24T01:13:41;1.00;;;0.43;;
33672;SDS011;20011;51.510;9.942;2023-04-24T01:16:09;1.35;;;0.50;;
33672;SDS011;20011;51.510;9.942;2023-04-24T01:18:36;0.73;;;0.65;;
33672;SDS011;20011;51.510;9.942;2023-04-24T01:21:04;0.60;;;0.60;;
33672;SDS011;20011;51.510;9.942;2023-04-24T01:23:33;2.95;;;0.70;;
33672;SDS011;20011;51.510;9.942;2023-04-24T01:26:01;2.47;;;0.70;;
33672;SDS011;20011;51.510;9.942;2023-04-24T01:28:28;2.20;;;0.70;;
33672;SDS011;20011;51.510;9.942;2023-04-24T01:30:56;1.27;;;0.70;;
33672;SDS011;20011;51.510;9.942;2023-04-24T01:33:23;0.85;;;0.68;;
33672;SDS011;20011;51.510;9.942;2023-04-24T01:35:50;1.38;;;0.80;;
33672;SDS011;20011;51.510;9.942;2023-04-24T01:38:17;4.93;;;1.85;;
33672;SDS011;20011;51.510;9.942;2023-04-24T01:40:44;1.67;;;0.98;;
33672;SDS011;20011;51.510;9.942;2023-04-24T01:43:12;1.30;;;0.88;;
33672;SDS011;20011;51.510;9.942;2023-04-24T01:45:39;2.80;;;1.10;;
33672;SDS011;20011;51.510;9.942;2023-04-24T01:48:06;1.40;;;0.63;;
33672;SDS011;20011;51.510;9.942;2023-04-24T01:50:34;3.88;;;1.20;;
33672;SDS011;20011;51.510;9.942;2023-04-24T01:53:02;0.73;;;0.50;;
33672;SDS011;20011;51.510;9.942;2023-04-24T01:55:29;3.58;;;0.65;;
33672;SDS011;20011;51.510;9.942;2023-04-24T01:57:56;0.63;;;0.50;;
33672;SDS011;20011;51.510;9.942;2023-04-24T02:00:25;2.00;;;0.70;;
33672;SDS011;20011;51.510;9.942;2023-04-24T02:02:52;1.30;;;0.60;;
33672;SDS011;20011;51.510;9.942;2023-04-24T02:05:19;0.82;;;0.65;;
33672;SDS011;20011;51.510;9.942;2023-04-24T02:07:46;3.63;;;0.73;;
33672;SDS011;20011;51.510;9.942;2023-04-24T02:10:13;2.80;;;0.73;;
33672;SDS011;20011;51.510;9.942;2023-04-24T02:12:41;1.05;;;0.70;;
33672;SDS011;20011;51.510;9.942;2023-04-24T02:15:08;0.70;;;0.70;;
33672;SDS011;20011;51.510;9.942;2023-04-24T02:17:36;4.07;;;0.82;;
33672;SDS011;20011;51.510;9.942;2023-04-24T02:20:06;3.53;;;0.63;;
33672;SDS011;20011;51.510;9.942;2023-04-24T02:22:34;0.68;;;0.65;;
33672;SDS011;20011;51.510;9.942;2023-04-24T02:25:01;1.15;;;0.70;;
33672;SDS011;20011;51.510;9.942;2023-04-24T02:27:28;0.68;;;0.68;;
33672;SDS011;20011;51.510;9.942;2023-04-24T02:29:55;3.03;;;0.70;;
33672;SDS011;20011;51.510;9.942;2023-04-24T02:32:22;1.23;;;0.77;;
33672;SDS011;20011;51.510;9.942;2023-04-24T02:34:50;1.33;;;0.80;;
33672;SDS011;20011;51.510;9.942;2023-04-24T02:37:16;4.47;;;0.70;;
33672;SDS011;20011;51.510;9.942;2023-04-24T02:39:43;1.48;;;0.82;;
33672;SDS011;20011;51.510;9.942;2023-04-24T02:42:10;0.93;;;0.80;;
33672;SDS011;20011;51.510;9.942;2023-04-24T02:44:37;4.47;;;0.77;;
33672;SDS011;20011;51.510;9.942;2023-04-24T02:47:04;1.35;;;0.85;;
33672;SDS011;20011;51.510;9.942;2023-04-24T02:49:32;2.03;;;0.60;;
33672;SDS011;20011;51.510;9.942;2023-04-24T02:51:59;0.70;;;0.70;;
33672;SDS011;20011;51.510;9.942;2023-04-24T02:54:26;2.88;;;1.05;;
33672;SDS011;20011;51.510;9.942;2023-04-24T02:56:53;1.67;;;0.90;;
33672;SDS011;20011;51.510;9.942;2023-04-24T03:02:49;1.25;;;0.73;;
33672;SDS011;20011;51.510;9.942;2023-04-24T03:05:17;1.30;;;0.73;;
33672;SDS011;20011;51.510;9.942;2023-04-24T03:07:43;1.95;;;1.00;;
33672;SDS011;20011;51.510;9.942;2023-04-24T03:10:11;4.45;;;0.98;;
33672;SDS011;20011;51.510;9.942;2023-04-24T03:12:38;0.95;;;0.88;;
33672;SDS011;20011;51.510;9.942;2023-04-24T03:15:05;0.70;;;0.70;;
33672;SDS011;20011;51.510;9.942;2023-04-24T03:20:03;2.38;;;0.90;;
33672;SDS011;20011;51.510;9.942;2023-04-24T03:22:32;1.30;;;1.05;;
33672;SDS011;20011;51.510;9.942;2023-04-24T03:25:01;2.85;;;0.95;;
33672;SDS011;20011;51.510;9.942;2023-04-24T03:27:29;1.00;;;0.90;;
33672;SDS011;20011;51.510;9.942;2023-04-24T03:30:01;2.55;;;1.05;;
33672;SDS011;20011;51.510;9.942;2023-04-24T03:32:39;4.05;;;1.25;;
33672;SDS011;20011;51.510;9.942;2023-04-24T03:35:09;1.35;;;1.25;;
33672;SDS011;20011;51.510;9.942;2023-04-24T03:37:36;1.58;;;1.20;;
33672;SDS011;20011;51.510;9.942;2023-04-24T03:40:38;1.55;;;1.20;;
33672;SDS011;20011;51.510;9.942;2023-04-24T03:43:18;2.27;;;1.17;;
33672;SDS011;20011;51.510;9.942;2023-04-24T03:45:45;2.97;;;1.17;;
33672;SDS011;20011;51.510;9.942;2023-04-24T03:48:13;1.58;;;1.10;;
33672;SDS011;20011;51.510;9.942;2023-04-24T03:50:40;2.53;;;1.27;;
33672;SDS011;20011;51.510;9.942;2023-04-24T03:53:09;6.20;;;1.20;;
33672;SDS011;20011;51.510;9.942;2023-04-24T03:55:39;1.33;;;1.17;;
33672;SDS011;20011;51.510;9.942;2023-04-24T03:58:07;2.80;;;1.08;;
33672;SDS011;20011;51.510;9.942;2023-04-24T04:00:35;1.48;;;1.10;;
33672;SDS011;20011;51.510;9.942;2023-04-24T04:03:40;1.50;;;0.93;;
33672;SDS011;20011;51.510;9.942;2023-04-24T04:06:07;3.25;;;1.45;;
33672;SDS011;20011;51.510;9.942;2023-04-24T04:08:34;2.47;;;1.13;;
33672;SDS011;20011;51.510;9.942;2023-04-24T04:11:01;2.25;;;1.25;;
33672;SDS011;20011;51.510;9.942;2023-04-24T04:13:31;3.50;;;1.10;;
33672;SDS011;20011;51.510;9.942;2023-04-24T04:15:58;1.83;;;1.25;;
33672;SDS011;20011;51.510;9.942;2023-04-24T04:18:26;3.20;;;1.27;;
33672;SDS011;20011;51.510;9.942;2023-04-24T04:20:53;2.80;;;1.13;;
33672;SDS011;20011;51.510;9.942;2023-04-24T04:23:20;2.25;;;1.10;;
33672;SDS011;20011;51.510;9.942;2023-04-24T04:26:05;3.83;;;1.48;;
33672;SDS011;20011;51.510;9.942;2023-04-24T04:28:59;2.70;;;1.48;;
33672;SDS011;20011;51.510;9.942;2023-04-24T04:31:31;1.42;;;1.33;;
33672;SDS011;20011;51.510;9.942;2023-04-24T04:34:05;1.02;;;1.00;;
33672;SDS011;20011;51.510;9.942;2023-04-24T04:36:33;2.35;;;1.05;;
33672;SDS011;20011;51.510;9.942;2023-04-24T04:39:16;2.75;;;1.30;;
33672;SDS011;20011;51.510;9.942;2023-04-24T04:41:54;3.00;;;1.13;;
33672;SDS011;20011;51.510;9.942;2023-04-24T04:44:25;1.98;;;1.20;;
33672;SDS011;20011;51.510;9.942;2023-04-24T04:46:57;2.95;;;1.00;;
33672;SDS011;20011;51.510;9.942;2023-04-24T04:49:28;3.60;;;1.60;;
33672;SDS011;20011;51.510;9.942;2023-04-24T04:51:55;1.58;;;1.15;;
33672;SDS011;20011;51.510;9.942;2023-04-24T04:54:24;1.27;;;1.05;;
33672;SDS011;20011;51.510;9.942;2023-04-24T04:56:52;2.17;;;1.05;;
33672;SDS011;20011;51.510;9.942;2023-04-24T04:59:20;3.20;;;0.88;;
33672;SDS011;20011;51.510;9.942;2023-04-24T05:01:51;1.23;;;1.13;;
33672;SDS011;20011;51.510;9.942;2023-04-24T05:04:19;2.15;;;1.27;;
33672;SDS011;20011;51.510;9.942;2023-04-24T05:06:46;2.25;;;1.02;;
33672;SDS011;20011;51.510;9.942;2023-04-24T05:09:14;2.28;;;1.05;;
33672;SDS011;20011;51.510;9.942;2023-04-24T05:11:51;5.85;;;1.48;;
33672;SDS011;20011;51.510;9.942;2023-04-24T05:14:19;4.88;;;1.33;;
33672;SDS011;20011;51.510;9.942;2023-04-24T05:16:48;0.80;;;0.80;;
33672;SDS011;20011;51.510;9.942;2023-04-24T05:19:19;1.38;;;1.13;;
33672;SDS011;20011;51.510;9.942;2023-04-24T05:21:46;2.42;;;0.88;;
33672;SDS011;20011;51.510;9.942;2023-04-24T05:24:13;3.42;;;1.05;;
33672;SDS011;20011;51.510;9.942;2023-04-24T05:26:59;1.00;;;0.90;;
33672;SDS011;20011;51.510;9.942;2023-04-24T05:29:33;3.63;;;1.00;;
33672;SDS011;20011;51.510;9.942;2023-04-24T05:32:03;3.20;;;1.27;;
33672;SDS011;20011;51.510;9.942;2023-04-24T05:34:30;1.13;;;0.73;;
33672;SDS011;20011;51.510;9.942;2023-04-24T05:36:57;1.88;;;0.65;;
33672;SDS011;20011;51.510;9.942;2023-04-24T05:39:25;0.70;;;0.70;;
33672;SDS011;20011;51.510;9.942;2023-04-24T05:41:53;0.95;;;0.80;;
33672;SDS011;20011;51.510;9.942;2023-04-24T05:44:20;0.95;;;0.80;;
33672;SDS011;20011;51.510;9.942;2023-04-24T05:46:47;1.05;;;0.70;;
33672;SDS011;20011;51.510;9.942;2023-04-24T05:49:15;1.55;;;0.70;;
33672;SDS011;20011;51.510;9.942;2023-04-24T05:51:42;1.23;;;0.63;;
33672;SDS011;20011;51.510;9.942;2023-04-24T05:54:09;0.60;;;0.60;;
33672;SDS011;20011;51.510;9.942;2023-04-24T05:56:38;0.70;;;0.70;;
33672;SDS011;20011;51.510;9.942;2023-04-24T05:59:10;1.67;;;0.90;;
33672;SDS011;20011;51.510;9.942;2023-04-24T06:01:37;1.23;;;0.68;;
33672;SDS011;20011;51.510;9.942;2023-04-24T06:04:11;1.17;;;1.08;;
33672;SDS011;20011;51.510;9.942;2023-04-24T06:09:08;0.90;;;0.70;;
33672;SDS011;20011;51.510;9.942;2023-04-24T06:11:35;1.10;;;0.63;;
33672;SDS011;20011;51.510;9.942;2023-04-24T06:14:02;1.25;;;0.82;;
33672;SDS011;20011;51.510;9.942;2023-04-24T06:16:40;4.32;;;0.90;;
33672;SDS011;20011;51.510;9.942;2023-04-24T06:19:21;2.85;;;1.17;;
33672;SDS011;20011;51.510;9.942;2023-04-24T06:21:48;0.75;;;0.75;;
33672;SDS011;20011;51.510;9.942;2023-04-24T06:24:15;6.25;;;0.70;;
33672;SDS011;20011;51.510;9.942;2023-04-24T06:26:42;0.90;;;0.90;;
33672;SDS011;20011;51.510;9.942;2023-04-24T06:29:09;1.00;;;0.80;;
33672;SDS011;20011;51.510;9.942;2023-04-24T06:31:36;0.93;;;0.93;;
33672;SDS011;20011;51.510;9.942;2023-04-24T06:34:03;1.60;;;1.10;;
33672;SDS011;20011;51.510;9.942;2023-04-24T06:36:30;1.13;;;1.00;;
33672;SDS011;20011;51.510;9.942;2023-04-24T06:38:58;2.85;;;1.13;;
33672;SDS011;20011;51.510;9.942;2023-04-24T06:41:25;1.10;;;1.00;;
33672;SDS011;20011;51.510;9.942;2023-04-24T06:43:52;1.65;;;1.20;;
33672;SDS011;20011;51.510;9.942;2023-04-24T06:46:19;2.97;;;1.42;;
33672;SDS011;20011;51.510;9.942;2023-04-24T06:48:48;1.67;;;1.27;;
33672;SDS011;20011;51.510;9.942;2023-04-24T06:51:16;5.10;;;1.08;;
33672;SDS011;20011;51.510;9.942;2023-04-24T06:53:44;2.17;;;1.23;;
33672;SDS011;20011;51.510;9.942;2023-04-24T06:56:14;1.80;;;1.25;;
33672;SDS011;20011;51.510;9.942;2023-04-24T06:58:41;1.92;;;1.15;;
33672;SDS011;20011;51.510;9.942;2023-04-24T07:01:08;2.42;;;1.70;;
33672;SDS011;20011;51.510;9.942;2023-04-24T07:03:36;2.25;;;1.60;;
33672;SDS011;20011;51.510;9.942;2023-04-24T07:06:04;2.83;;;2.17;;
33672;SDS011;20011;51.510;9.942;2023-04-24T07:08:31;3.80;;;2.35;;
33672;SDS011;20011;51.510;9.942;2023-04-24T07:10:59;6.45;;;2.28;;
33672;SDS011;20011;51.510;9.942;2023-04-24T07:13:26;3.42;;;2.60;;
33672;SDS011;20011;51.510;9.942;2023-04-24T07:15:53;3.78;;;2.95;;
33672;SDS011;20011;51.510;9.942;2023-04-24T07:18:22;3.10;;;2.70;;
33672;SDS011;20011;51.510;9.942;2023-04-24T07:20:49;8.63;;;2.25;;
33672;SDS011;20011;51.510;9.942;2023-04-24T07:23:17;4.25;;;2.53;;
33672;SDS011;20011;51.510;9.942;2023-04-24T07:25:44;3.92;;;2.70;;
33672;SDS011;20011;51.510;9.942;2023-04-24T07:28:11;2.67;;;2.33;;
33672;SDS011;20011;51.510;9.942;2023-04-24T07:30:38;5.00;;;2.60;;
33672;SDS011;20011;51.510;9.942;2023-04-24T07:33:05;6.20;;;3.55;;
33672;SDS011;20011;51.510;9.942;2023-04-24T07:35:33;2.92;;;2.60;;
33672;SDS011;20011;51.510;9.942;2023-04-24T07:38:00;3.13;;;2.55;;
33672;SDS011;20011;51.510;9.942;2023-04-24T07:40:28;3.08;;;2.35;;
33672;SDS011;20011;51.510;9.942;2023-04-24T07:42:55;7.90;;;3.70;;
33672;SDS011;20011;51.510;9.942;2023-04-24T07:45:22;3.05;;;2.28;;
33672;SDS011;20011;51.510;9.942;2023-04-24T07:47:50;3.53;;;2.72;;
33672;SDS011;20011;51.510;9.942;2023-04-24T07:50:17;2.53;;;2.22;;
33672;SDS011;20011;51.510;9.942;2023-04-24T07:52:44;4.43;;;2.47;;
33672;SDS011;20011;51.510;9.942;2023-04-24T07:55:11;2.67;;;2.38;;
33672;SDS011;20011;51.510;9.942;2023-04-24T07:57:38;4.60;;;2.95;;
33672;SDS011;20011;51.510;9.942;2023-04-24T08:00:05;2.75;;;2.00;;
33672;SDS011;20011;51.510;9.942;2023-04-24T08:02:36;3.00;;;2.55;;
33672;SDS011;20011;51.510;9.942;2023-04-24T08:05:04;10.73;;;2.88;;
33672;SDS011;20011;51.510;9.942;2023-04-24T08:07:32;3.28;;;1.92;;
33672;SDS011;20011;51.510;9.942;2023-04-24T08:09:58;1.73;;;1.63;;
33672;SDS011;20011;51.510;9.942;2023-04-24T08:12:25;3.85;;;1.67;;
33672;SDS011;20011;51.510;9.942;2023-04-24T08:14:54;4.75;;;2.03;;
33672;SDS011;20011;51.510;9.942;2023-04-24T08:17:21;2.65;;;1.90;;
33672;SDS011;20011;51.510;9.942;2023-04-24T08:19:48;6.25;;;1.90;;
33672;SDS011;20011;51.510;9.942;2023-04-24T08:22:17;2.55;;;1.73;;
33672;SDS011;20011;51.510;9.942;2023-04-24T08:24:44;2.72;;;2.20;;
33672;SDS011;20011;51.510;9.942;2023-04-24T08:27:11;3.92;;;1.90;;
33672;SDS011;20011;51.510;9.942;2023-04-24T08:29:37;2.50;;;2.08;;
33672;SDS011;20011;51.510;9.942;2023-04-24T08:32:04;2.50;;;2.13;;
33672;SDS011;20011;51.510;9.942;2023-04-24T08:34:32;4.05;;;2.58;;
33672;SDS011;20011;51.510;9.942;2023-04-24T08:36:58;3.20;;;2.33;;
33672;SDS011;20011;51.510;9.942;2023-04-24T08:39:25;3.03;;;2.47;;
33672;SDS011;20011;51.510;9.942;2023-04-24T08:41:52;2.25;;;2.00;;
33672;SDS011;20011;51.510;9.942;2023-04-24T08:44:20;2.95;;;1.98;;
33672;SDS011;20011;51.510;9.942;2023-04-24T08:46:47;3.03;;;2.00;;
33672;SDS011;20011;51.510;9.942;2023-04-24T08:49:15;2.22;;;2.03;;
33672;SDS011;20011;51.510;9.942;2023-04-24T08:51:44;3.17;;;2.15;;
33672;SDS011;20011;51.510;9.942;2023-04-24T08:54:13;2.00;;;1.80;;
33672;SDS011;20011;51.510;9.942;2023-04-24T08:56:41;3.03;;;2.47;;
33672;SDS011;20011;51.510;9.942;2023-04-24T08:59:11;3.63;;;2.22;;
33672;SDS011;20011;51.510;9.942;2023-04-24T09:01:38;4.22;;;2.30;;
33672;SDS011;20011;51.510;9.942;2023-04-24T09:04:07;2.30;;;1.83;;
33672;SDS011;20011;51.510;9.942;2023-04-24T09:06:39;2.95;;;2.58;;
33672;SDS011;20011;51.510;9.942;2023-04-24T09:09:06;3.22;;;2.20;;
33672;SDS011;20011;51.510;9.942;2023-04-24T09:11:34;4.20;;;2.33;;
33672;SDS011;20011;51.510;9.942;2023-04-24T09:14:02;2.38;;;2.08;;
33672;SDS011;20011;51.510;9.942;2023-04-24T09:16:29;2.10;;;1.90;;
33672;SDS011;20011;51.510;9.942;2023-04-24T09:19:02;4.13;;;2.25;;
33672;SDS011;20011;51.510;9.942;2023-04-24T09:21:33;2.90;;;2.30;;
33672;SDS011;20011;51.510;9.942;2023-04-24T09:24:02;6.65;;;2.25;;
33672;SDS011;20011;51.510;9.942;2023-04-24T09:26:36;3.17;;;2.25;;
33672;SDS011;20011;51.510;9.942;2023-04-24T09:29:03;5.93;;;2.33;;
33672;SDS011;20011;51.510;9.942;2023-04-24T09:31:31;2.20;;;1.90;;
33672;SDS011;20011;51.510;9.942;2023-04-24T09:34:02;3.03;;;2.33;;
33672;SDS011;20011;51.510;9.942;2023-04-24T09:39:11;2.97;;;2.15;;
33672;SDS011;20011;51.510;9.942;2023-04-24T09:41:53;6.20;;;2.65;;
33672;SDS011;20011;51.510;9.942;2023-04-24T09:44:25;3.97;;;2.60;;
33672;SDS011;20011;51.510;9.942;2023-04-24T09:46:54;6.47;;;2.75;;
33672;SDS011;20011;51.510;9.942;2023-04-24T09:49:25;3.92;;;2.78;;
33672;SDS011;20011;51.510;9.942;2023-04-24T09:52:03;3.15;;;2.50;;
33672;SDS011;20011;51.510;9.942;2023-04-24T09:54:31;3.45;;;2.50;;
33672;SDS011;20011;51.510;9.942;2023-04-24T09:56:59;2.90;;;2.30;;
33672;SDS011;20011;51.510;9.942;2023-04-24T09:59:27;3.05;;;2.55;;
33672;SDS011;20011;51.510;9.942;2023-04-24T10:01:53;2.45;;;2.22;;
33672;SDS011;20011;51.510;9.942;2023-04-24T10:04:22;2.58;;;2.25;;
33672;SDS011;20011;51.510;9.942;2023-04-24T10:06:51;8.13;;;2.42;;
33672;SDS011;20011;51.510;9.942;2023-04-24T10:09:21;5.18;;;2.35;;
33672;SDS011;20011;51.510;9.942;2023-04-24T10:11:50;1.75;;;1.45;;
33672;SDS011;20011;51.510;9.942;2023-04-24T10:14:18;2.55;;;2.13;;
33672;SDS011;20011;51.510;9.942;2023-04-24T10:16:47;4.50;;;2.28;;
33672;SDS011;20011;51.510;9.942;2023-04-24T10:19:15;5.57;;;2.10;;
33672;SDS011;20011;51.510;9.942;2023-04-24T10:21:45;3.33;;;1.80;;
33672;SDS011;20011;51.510;9.942;2023-04-24T10:24:15;2.20;;;2.00;;
33672;SDS011;20011;51.510;9.942;2023-04-24T10:26:44;2.73;;;1.93;;
33672;SDS011;20011;51.510;9.942;2023-04-24T10:29:12;2.05;;;1.60;;
33672;SDS011;20011;51.510;9.942;2023-04-24T10:31:42;2.92;;;1.88;;
33672;SDS011;20011;51.510;9.942;2023-04-24T10:34:12;4.55;;;1.90;;
33672;SDS011;20011;51.510;9.942;2023-04-24T10:36:48;2.10;;;1.70;;
33672;SDS011;20011;51.510;9.942;2023-04-24T10:39:24;3.25;;;2.40;;
33672;SDS011;20011;51.510;9.942;2023-04-24T10:41:53;1.88;;;1.60;;
33672;SDS011;20011;51.510;9.942;2023-04-24T10:44:24;4.30;;;1.70;;
33672;SDS011;20011;51.510;9.942;2023-04-24T10:46:55;2.63;;;1.95;;
33672;SDS011;20011;51.510;9.942;2023-04-24T10:49:29;1.10;;;0.90;;
33672;SDS011;20011;51.510;9.942;2023-04-24T10:52:01;4.28;;;1.45;;
33672;SDS011;20011;51.510;9.942;2023-04-24T10:54:44;1.60;;;1.23;;
33672;SDS011;20011;51.510;9.942;2023-04-24T10:59:49;4.10;;;1.50;;
33672;SDS011;20011;51.510;9.942;2023-04-24T11:02:36;2.95;;;1.88;;
33672;SDS011;20011;51.510;9.942;2023-04-24T11:05:04;2.23;;;1.10;;
33672;SDS011;20011;51.510;9.942;2023-04-24T11:10:56;5.13;;;1.20;;
33672;SDS011;20011;51.510;9.942;2023-04-24T11:13:24;1.10;;;1.10;;
33672;SDS011;20011;51.510;9.942;2023-04-24T11:18:42;2.75;;;1.30;;
33672;SDS011;20011;51.510;9.942;2023-04-24T11:21:12;1.77;;;1.35;;
33672;SDS011;20011;51.510;9.942;2023-04-24T11:23:39;1.25;;;1.02;;
33672;SDS011;20011;51.510;9.942;2023-04-24T11:26:40;2.35;;;1.10;;
33672;SDS011;20011;51.510;9.942;2023-04-24T11:29:06;1.65;;;1.30;;
33672;SDS011;20011;51.510;9.942;2023-04-24T11:31:38;4.68;;;0.95;;
33672;SDS011;20011;51.510;9.942;2023-04-24T11:34:11;3.25;;;1.30;;
33672;SDS011;20011;51.510;9.942;2023-04-24T11:36:43;2.13;;;1.83;;
33672;SDS011;20011;51.510;9.942;2023-04-24T11:39:11;3.25;;;1.17;;
33672;SDS011;20011;51.510;9.942;2023-04-24T11:41:38;1.30;;;1.13;;
33672;SDS011;20011;51.510;9.942;2023-04-24T11:44:06;1.42;;;1.33;;
33672;SDS011;20011;51.510;9.942;2023-04-24T11:46:34;1.13;;;1.02;;
33672;SDS011;20011;51.510;9.942;2023-04-24T11:49:04;1.73;;;1.20;;
33672;SDS011;20011;51.510;9.942;2023-04-24T11:51:31;2.78;;;1.40;;
33672;SDS011;20011;51.510;9.942;2023-04-24T11:54:13;1.83;;;1.38;;
33672;SDS011;20011;51.510;9.942;2023-04-24T11:56:44;1.58;;;1.25;;
33672;SDS011;20011;51.510;9.942;2023-04-24T11:59:14;2.03;;;1.10;;
33672;SDS011;20011;51.510;9.942;2023-04-24T12:01:44;1.27;;;0.73;;
33672;SDS011;20011;51.510;9.942;2023-04-24T12:04:12;0.73;;;0.73;;
33672;SDS011;20011;51.510;9.942;2023-04-24T12:06:58;1.40;;;1.08;;
33672;SDS011;20011;51.510;9.942;2023-04-24T12:09:26;0.90;;;0.90;;
33672;SDS011;20011;51.510;9.942;2023-04-24T12:11:56;1.17;;;0.80;;
33672;SDS011;20011;51.510;9.942;2023-04-24T12:14:23;2.83;;;0.63;;
33672;SDS011;20011;51.510;9.942;2023-04-24T12:16:50;2.00;;;0.60;;
33672;SDS011;20011;51.510;9.942;2023-04-24T12:19:21;0.60;;;0.60;;
33672;SDS011;20011;51.510;9.942;2023-04-24T12:22:01;0.60;;;0.60;;
33672;SDS011;20011;51.510;9.942;2023-04-24T12:24:31;4.03;;;0.60;;
33672;SDS011;20011;51.510;9.942;2023-04-24T12:26:58;0.50;;;0.30;;
33672;SDS011;20011;51.510;9.942;2023-04-24T12:29:27;2.00;;;0.40;;
33672;SDS011;20011;51.510;9.942;2023-04-24T12:31:54;0.57;;;0.40;;
33672;SDS011;20011;51.510;9.942;2023-04-24T12:34:22;0.38;;;0.38;;
33672;SDS011;20011;51.510;9.942;2023-04-24T12:36:51;0.60;;;0.40;;
33672;SDS011;20011;51.510;9.942;2023-04-24T12:39:18;0.38;;;0.38;;
33672;SDS011;20011;51.510;9.942;2023-04-24T12:41:55;2.17;;;0.50;;
33672;SDS011;20011;51.510;9.942;2023-04-24T12:44:30;0.40;;;0.25;;
33672;SDS011;20011;51.510;9.942;2023-04-24T12:47:01;0.20;;;0.20;;
33672;SDS011;20011;51.510;9.942;2023-04-24T12:49:29;0.20;;;0.20;;
33672;SDS011;20011;51.510;9.942;2023-04-24T12:51:56;0.30;;;0.20;;
33672;SDS011;20011;51.510;9.942;2023-04-24T12:54:23;2.10;;;0.50;;
33672;SDS011;20011;51.510;9.942;2023-04-24T12:56:50;0.50;;;0.50;;
33672;SDS011;20011;51.510;9.942;2023-04-24T12:59:17;3.63;;;0.40;;
33672;SDS011;20011;51.510;9.942;2023-04-24T13:01:44;0.32;;;0.32;;
33672;SDS011;20011;51.510;9.942;2023-04-24T13:04:11;0.30;;;0.30;;
33672;SDS011;20011;51.510;9.942;2023-04-24T13:06:38;0.30;;;0.30;;
33672;SDS011;20011;51.510;9.942;2023-04-24T13:09:05;1.35;;;0.47;;
33672;SDS011;20011;51.510;9.942;2023-04-24T13:11:32;0.30;;;0.30;;
33672;SDS011;20011;51.510;9.942;2023-04-24T13:13:59;0.30;;;0.30;;
33672;SDS011;20011;51.510;9.942;2023-04-24T13:16:26;0.57;;;0.57;;
33672;SDS011;20011;51.510;9.942;2023-04-24T13:18:53;0.20;;;0.20;;
33672;SDS011;20011;51.510;9.942;2023-04-24T13:21:20;0.43;;;0.40;;
33672;SDS011;20011;51.510;9.942;2023-04-24T13:23:46;0.63;;;0.30;;
33672;SDS011;20011;51.510;9.942;2023-04-24T13:26:13;0.40;;;0.40;;
33672;SDS011;20011;51.510;9.942;2023-04-24T13:28:40;2.30;;;0.57;;
33672;SDS011;20011;51.510;9.942;2023-04-24T13:31:07;0.25;;;0.25;;
33672;SDS011;20011;51.510;9.942;2023-04-24T13:33:34;0.40;;;0.40;;
33672;SDS011;20011;51.510;9.942;2023-04-24T13:36:01;0.40;;;0.40;;
33672;SDS011;20011;51.510;9.942;2023-04-24T13:38:28;1.75;;;0.38;;
33672;SDS011;20011;51.510;9.942;2023-04-24T13:40:55;0.55;;;0.40;;
33672;SDS011;20011;51.510;9.942;2023-04-24T13:43:22;0.68;;;0.40;;
33672;SDS011;20011;51.510;9.942;2023-04-24T13:45:49;0.50;;;0.40;;
33672;SDS011;20011;51.510;9.942;2023-04-24T13:48:16;0.30;;;0.30;;
33672;SDS011;20011;51.510;9.942;2023-04-24T13:50:43;0.40;;;0.40;;
33672;SDS011;20011;51.510;9.942;2023-04-24T13:53:10;0.30;;;0.30;;
33672;SDS011;20011;51.510;9.942;2023-04-24T13:55:37;0.50;;;0.50;;
33672;SDS011;20011;51.510;9.942;2023-04-24T13:58:05;0.50;;;0.50;;
33672;SDS011;20011;51.510;9.942;2023-04-24T14:00:32;0.40;;;0.40;;
33672;SDS011;20011;51.510;9.942;2023-04-24T14:02:59;0.40;;;0.40;;
33672;SDS011;20011;51.510;9.942;2023-04-24T14:05:27;0.43;;;0.40;;
33672;SDS011;20011;51.510;9.942;2023-04-24T14:07:54;1.70;;;0.50;;
33672;SDS011;20011;51.510;9.942;2023-04-24T14:10:21;0.47;;;0.35;;
33672;SDS011;20011;51.510;9.942;2023-04-24T14:12:48;0.30;;;0.30;;
33672;SDS011;20011;51.510;9.942;2023-04-24T14:15:15;0.30;;;0.30;;
33672;SDS011;20011;51.510;9.942;2023-04-24T14:17:43;0.50;;;0.50;;
33672;SDS011;20011;51.510;9.942;2023-04-24T14:20:10;0.40;;;0.40;;
33672;SDS011;20011;51.510;9.942;2023-04-24T14:22:38;0.40;;;0.40;;
33672;SDS011;20011;51.510;9.942;2023-04-24T14:25:05;0.80;;;0.50;;
33672;SDS011;20011;51.510;9.942;2023-04-24T14:27:33;1.92;;;0.60;;
33672;SDS011;20011;51.510;9.942;2023-04-24T14:30:01;1.35;;;0.80;;
33672;SDS011;20011;51.510;9.942;2023-04-24T14:32:28;0.50;;;0.50;;
33672;SDS011;20011;51.510;9.942;2023-04-24T14:34:55;0.85;;;0.70;;
33672;SDS011;20011;51.510;9.942;2023-04-24T14:37:22;0.75;;;0.75;;
33672;SDS011;20011;51.510;9.942;2023-04-24T14:39:48;0.93;;;0.88;;
33672;SDS011;20011;51.510;9.942;2023-04-24T14:42:35;0.80;;;0.80;;
33672;SDS011;20011;51.510;9.942;2023-04-24T14:45:02;0.63;;;0.63;;
33672;SDS011;20011;51.510;9.942;2023-04-24T14:47:30;1.33;;;0.90;;
33672;SDS011;20011;51.510;9.942;2023-04-24T14:49:57;1.92;;;0.90;;
33672;SDS011;20011;51.510;9.942;2023-04-24T14:52:25;2.65;;;1.05;;
33672;SDS011;20011;51.510;9.942;2023-04-24T14:54:52;1.85;;;1.25;;
33672;SDS011;20011;51.510;9.942;2023-04-24T14:57:19;1.05;;;0.95;;
33672;SDS011;20011;51.510;9.942;2023-04-24T14:59:46;1.55;;;1.27;;
33672;SDS011;20011;51.510;9.942;2023-04-24T15:02:13;2.13;;;1.52;;
33672;SDS011;20011;51.510;9.942;2023-04-24T15:04:42;2.70;;;1.70;;
33672;SDS011;20011;51.510;9.942;2023-04-24T15:07:10;3.95;;;1.40;;
33672;SDS011;20011;51.510;9.942;2023-04-24T15:09:37;2.65;;;1.83;;
33672;SDS011;20011;51.510;9.942;2023-04-24T15:12:04;2.88;;;2.17;;
33672;SDS011;20011;51.510;9.942;2023-04-24T15:14:31;1.95;;;1.70;;
33672;SDS011;20011;51.510;9.942;2023-04-24T15:16:58;4.53;;;2.20;;
33672;SDS011;20011;51.510;9.942;2023-04-24T15:19:25;4.05;;;2.67;;